Aviation Digital Data Service (ADDS)

Output produced by METARs form (0837 UTC 17 November 2018)
found at http://www.aviationweather.gov/metar/data/
 
TAF EFJY 170526Z 1706/1806 25007KT 9999 FEW011 
     BECMG 1709/1711 31010KT
       
TAF EFTP 170526Z 1706/1806 25012KT 9999 BKN006 
     BECMG 1707/1709 SCT011 
     BECMG 1711/1713 31007KT
       
TAF EFKU 170525Z 1706/1806 27010KT 9999 SCT015 
     BECMG 1716/1718 33013KT 
     TEMPO 1718/1806 34016G26KT
       
TAF EFLP 170525Z 1706/1709 26012KT 9999 BKN015 
     TEMPO 1706/1708 BKN013
       
TAF AMD EFTU 170627Z 1706/1806 25010KT 9999 BKN009 
     BECMG 1707/1709 CAVOK 
     BECMG 1709/1711 31007KT